Latest Coastal Weather Observations for Hillarys Point Boat Harbour

IDW60701

Issued at 8:42 pm WST Thursday 26 May 2016 (issued every 10 minutes, with the page automatically refreshed every 10 minutes)

About coastal observations | Map of coastal stations | Coastal observations for WA | Marine services | Other Formats
Station Details ID: 009265 Name: HILLARYS BOAT HARBOUR NTC AWS Lat: -31.83 Lon: 115.74 Height: 0.0 m
Data from the previous 72 hours. | See also: Recent months for locations in Western Australia
Date/Time
WST
Temp

°C
Wind Pressure Rain
since 9am
mm
Weather Cloud Vis
km
Sea
Height
m
Swell
Dir
 
Speed
knots
Gust
knots
hPa Trend Height
m
Period
s
Dir
26/08:30pm 14.8 ENE 2 4 1022.0 - - - - - - - - -
26/08:00pm 15.1 CALM 0 1 1021.7 - - - - - - - - -
26/07:30pm 15.7 E 1 2 1021.6 - - - - - - - - -
26/07:00pm 15.9 E 1 2 1021.5 - - - - - - - - -
26/06:30pm 16.4 SE 1 4 1020.8 - - - - - - - - -
26/06:00pm 16.8 ESE 1 4 1020.2 - - - - - - - - -
26/05:30pm 17.4 S 2 6 1020.4 - - - - - - - - -
26/05:00pm 17.5 S 3 8 1019.7 - - - - - - - - -
26/04:30pm 17.6 SSW 4 7 1019.7 - - - - - - - - -
26/04:00pm 17.8 S 3 7 1019.1 - - - - - - - - -
26/03:30pm 17.8 S 3 7 1019.1 - - - - - - - - -
26/03:00pm 17.9 S 3 6 1019.0 - - - - - - - - -
26/02:30pm 18.0 S 2 5 1018.7 - - - - - - - - -
26/02:00pm 17.7 S 3 5 1018.8 - - - - - - - - -
26/01:30pm 17.3 SSW 6 13 1018.5 - - - - - - - - -
26/01:00pm 17.5 SSW 3 9 1018.6 - - - - - - - - -
26/12:30pm 17.5 SSW 7 14 1018.5 - - - - - - - - -
26/12:00pm 17.5 SSW 6 13 1018.4 - - - - - - - - -
26/11:30am 18.1 SSW 4 10 1018.2 - - - - - - - - -
26/11:00am 18.7 WSW 12 15 1018.3 - - - - - - - - -
26/10:30am 18.6 WSW 12 16 1018.1 - - - - - - - - -
26/10:00am 18.2 WSW 8 11 1017.4 - - - - - - - - -
26/09:30am 18.1 WSW 9 13 1017.5 - - - - - - - - -
26/09:00am 18.1 SW 10 13 1017.1 - - - - - - - - -
26/08:30am 17.8 SW 10 15 1016.6 - - - - - - - - -
26/08:00am 17.1 SSW 6 12 1016.0 - - - - - - - - -
26/07:30am 18.3 WSW 12 16 1015.4 - - - - - - - - -
26/07:00am 18.3 WSW 11 15 1014.9 - - - - - - - - -
26/06:30am 18.3 WSW 13 19 1014.8 - - - - - - - - -
26/06:00am 18.3 WSW 14 19 1014.5 - - - - - - - - -
26/05:30am 18.0 WSW 13 17 1013.7 - - - - - - - - -
26/05:00am 18.1 WSW 15 21 1014.2 - - - - - - - - -
26/04:30am 18.2 WSW 14 19 1013.8 - - - - - - - - -
26/04:00am 18.1 WSW 14 21 1013.7 - - - - - - - - -
26/03:30am 17.9 WSW 15 21 1013.3 - - - - - - - - -
26/03:00am 18.1 WSW 15 21 1013.0 - - - - - - - - -
26/02:30am 17.9 WSW 12 20 1012.9 - - - - - - - - -
26/02:00am 17.8 W 11 19 1012.7 - - - - - - - - -
26/01:30am 17.9 W 10 16 1012.5 - - - - - - - - -
26/01:00am 17.1 W 8 15 1012.4 - - - - - - - - -
26/12:30am 16.6 WNW 6 9 1012.5 - - - - - - - - -
26/12:00am 14.8 W 9 16 1012.5 - - - - - - - - -
 
Date/Time
WST
Temp

°C
Wind Pressure Rain
since 9am
mm
Weather Cloud Vis
km
Sea
Height
m
Swell
Dir
 
Speed
knots
Gust
knots
hPa Trend Height
m
Period
s
Dir
25/11:30pm 17.1 NW 6 10 1012.7 - - - - - - - - -
25/11:00pm 16.3 NW 6 13 1013.0 - - - - - - - - -
25/10:30pm 17.3 WNW 5 8 1013.0 - - - - - - - - -
25/10:00pm 16.8 NNW 4 7 1012.2 - - - - - - - - -
25/09:30pm 16.8 NW 5 9 1012.9 - - - - - - - - -
25/09:00pm 16.3 NNW 4 7 1012.7 - - - - - - - - -
25/08:30pm 16.1 NNW 6 10 1013.1 - - - - - - - - -
25/08:00pm 16.4 W 6 11 1013.0 - - - - - - - - -
25/07:30pm 17.1 W 6 13 1013.1 - - - - - - - - -
25/07:00pm 17.0 WNW 7 11 1012.8 - - - - - - - - -
25/06:30pm 16.8 WSW 8 11 1012.6 - - - - - - - - -
25/06:00pm 15.6 WSW 12 18 1012.3 - - - - - - - - -
25/05:30pm 16.3 WSW 10 15 1011.9 - - - - - - - - -
25/05:00pm 17.1 W 7 13 1011.7 - - - - - - - - -
25/04:30pm 17.7 WNW 5 9 1011.7 - - - - - - - - -
25/04:00pm 17.9 WNW 8 13 1011.4 - - - - - - - - -
25/03:30pm 18.1 WNW 6 10 1011.3 - - - - - - - - -
25/03:00pm 17.6 WNW 7 12 1011.3 - - - - - - - - -
25/02:30pm 17.7 WNW 6 12 1011.3 - - - - - - - - -
25/02:00pm 17.6 W 7 11 1011.2 - - - - - - - - -
25/01:30pm 17.6 W 7 12 1011.2 - - - - - - - - -
25/01:00pm 17.4 W 7 12 1011.2 - - - - - - - - -
25/12:30pm 17.5 W 8 12 1011.2 - - - - - - - - -
25/12:00pm 17.6 W 6 10 1011.5 - - - - - - - - -
25/11:30am 17.2 WSW 7 11 1011.7 - - - - - - - - -
25/11:00am 17.4 W 7 10 1011.8 - - - - - - - - -
25/10:30am 17.4 W 6 10 1011.9 - - - - - - - - -
25/10:00am 16.8 W 9 14 1011.9 - - - - - - - - -
25/09:30am 17.0 WSW 9 12 1011.8 - - - - - - - - -
25/09:00am 17.0 WSW 9 13 1011.7 - - - - - - - - -
25/08:30am 16.9 W 3 8 1011.6 - - - - - - - - -
25/08:00am 16.1 WSW 4 6 1011.5 - - - - - - - - -
25/07:30am 15.8 WSW 14 19 1011.3 - - - - - - - - -
25/07:00am 15.7 SW 7 14 1011.1 - - - - - - - - -
25/06:30am 17.4 WSW 8 12 1010.6 - - - - - - - - -
25/06:00am 17.3 WSW 7 12 1010.4 - - - - - - - - -
25/05:30am 17.1 WSW 11 16 1010.2 - - - - - - - - -
25/05:00am 17.3 WSW 8 12 1010.2 - - - - - - - - -
25/04:30am 16.7 SW 9 14 1010.1 - - - - - - - - -
25/04:00am 17.4 WSW 11 16 1010.0 - - - - - - - - -
25/03:30am 17.0 WNW 6 10 1010.1 - - - - - - - - -
25/03:00am 17.1 W 8 16 1010.2 - - - - - - - - -
25/02:30am 17.1 SW 5 7 1010.2 - - - - - - - - -
25/02:00am 16.8 SW 11 16 1010.2 - - - - - - - - -
25/01:30am 17.2 WSW 8 11 1010.2 - - - - - - - - -
25/01:00am 17.0 WSW 8 13 1010.3 - - - - - - - - -
25/12:30am 17.1 SW 9 15 1010.3 - - - - - - - - -
25/12:00am 16.7 SW 8 13 1010.3 - - - - - - - - -
 
Date/Time
WST
Temp

°C
Wind Pressure Rain
since 9am
mm
Weather Cloud Vis
km
Sea
Height
m
Swell
Dir
 
Speed
knots
Gust
knots
hPa Trend Height
m
Period
s
Dir
24/11:30pm 16.9 WSW 8 12 1010.2 - - - - - - - - -
24/11:00pm 17.4 WSW 9 14 1010.3 - - - - - - - - -
24/10:30pm 16.8 SW 6 12 1010.5 - - - - - - - - -
24/10:00pm 17.0 WSW 9 15 1010.5 - - - - - - - - -
24/09:30pm 17.3 WSW 10 14 1010.4 - - - - - - - - -
24/09:00pm 16.9 WSW 8 20 1010.5 - - - - - - - - -
24/08:30pm 17.1 SW 10 15 1010.4 - - - - - - - - -
24/08:00pm 17.1 WSW 7 10 1010.4 - - - - - - - - -
24/07:30pm 16.8 SW 11 17 1010.4 - - - - - - - - -
24/07:00pm 17.4 W 9 14 1010.1 - - - - - - - - -
24/06:30pm 17.5 W 8 15 1009.8 - - - - - - - - -
24/06:00pm 17.6 WSW 11 15 1009.3 - - - - - - - - -
24/05:30pm 17.7 WSW 10 14 1008.9 - - - - - - - - -
24/05:00pm 17.6 WSW 10 14 1008.7 - - - - - - - - -
24/04:30pm 17.4 SW 9 13 1008.5 - - - - - - - - -
24/04:00pm 17.1 SW 11 15 1008.4 - - - - - - - - -
24/03:30pm 17.7 WSW 11 15 1008.0 - - - - - - - - -
24/03:00pm 17.4 WSW 9 14 1007.8 - - - - - - - - -
24/02:30pm 17.2 WSW 14 18 1007.5 - - - - - - - - -
24/02:00pm 17.8 WSW 12 16 1007.3 - - - - - - - - -
24/01:30pm 17.9 WSW 10 15 1007.0 - - - - - - - - -
24/01:00pm 18.0 WSW 12 15 1007.0 - - - - - - - - -
24/12:30pm 18.1 WSW 12 18 1007.0 - - - - - - - - -
24/12:00pm 18.0 WSW 13 19 1007.4 - - - - - - - - -
24/11:30am 18.1 WSW 14 19 1007.6 - - - - - - - - -
24/11:00am 18.1 WSW 17 23 1007.7 - - - - - - - - -
24/10:30am 18.2 WSW 17 23 1007.4 - - - - - - - - -
24/10:00am 18.3 WSW 16 23 1007.1 - - - - - - - - -
24/09:30am 18.4 SW 15 21 1007.1 - - - - - - - - -
24/09:00am 17.7 SW 15 23 1006.9 - - - - - - - - -
24/08:30am 18.8 WSW 13 21 1006.1 - - - - - - - - -
24/08:00am 18.2 SW 14 22 1005.8 - - - - - - - - -
24/07:30am 18.0 SW 14 21 1005.0 - - - - - - - - -
24/07:16am 17.5 SW 17 28 1004.6 - - - - - - - - -
24/07:00am 18.9 WSW 19 29 1004.0 - - - - - - - - -
24/06:54am 18.9 WSW 17 29 1003.8 - - - - - - - - -
24/06:30am 17.5 SW 18 26 1003.7 - - - - - - - - -
24/06:00am 18.0 WSW 19 25 1002.8 - - - - - - - - -
24/05:30am 18.4 WSW 20 28 1002.2 - - - - - - - - -
24/05:25am 18.4 W 19 28 1002.1 - - - - - - - - -
24/05:00am 18.8 NNW 15 27 1001.0 - - - - - - - - -
24/04:30am 19.0 NNW 15 28 1001.2 - - - - - - - - -
24/04:00am 18.7 NNW 16 30 1001.5 - - - - - - - - -
24/03:37am 17.8 NNW 15 25 1002.0 - - - - - - - - -
24/03:30am 17.6 NNW 13 25 1002.1 - - - - - - - - -
24/03:00am 16.8 N 10 19 1002.3 - - - - - - - - -
24/02:30am 16.7 N 10 19 1002.9 - - - - - - - - -
24/02:00am 16.8 N 10 17 1003.2 - - - - - - - - -
24/01:30am 16.5 N 9 18 1003.6 - - - - - - - - -
24/01:00am 16.7 N 8 14 1004.8 - - - - - - - - -
24/12:30am 17.6 N 9 14 1005.1 - - - - - - - - -
24/12:00am 17.3 N 9 15 1004.6 - - - - - - - - -
 
Date/Time
WST
Temp

°C
Wind Pressure Rain
since 9am
mm
Weather Cloud Vis
km
Sea
Height
m
Swell
Dir
 
Speed
knots
Gust
knots
hPa Trend Height
m
Period
s
Dir
23/11:30pm 17.7 N 8 13 1006.0 - - - - - - - - -
23/11:00pm 18.2 N 10 16 1006.3 - - - - - - - - -
23/10:30pm 18.0 N 9 15 1006.6 - - - - - - - - -
23/10:00pm 18.0 N 9 14 1007.2 - - - - - - - - -
23/09:30pm 18.1 N 8 13 1007.2 - - - - - - - - -
23/09:00pm 18.3 NNE 8 13 1007.8 - - - - - - - - -

Other Formats:

Comma delimited format used in spreadsheet applications
http://www.bom.gov.au/fwo/IDW60701/IDW60701.95605.axf

JavaScript Object Notation format (JSON) in row-major order
http://www.bom.gov.au/fwo/IDW60701/IDW60701.95605.json